Time;durP1;ratioP1;P1;durP2;ratioP2;P2;SDS_P1;SDS_P2;PMS_P1;PMS_P2;Temp;Humidity;BMP_temperature;BMP_pressure;BME280_temperature;BME280_humidity;BME280_pressure;Samples;Min_cycle;Max_cycle;Signal;HPM_P1;HPM_P2
2022/03/15 00:00:43;;;;;;;39.57;26.10;;;;;;;5.70;88.04;102711.91;5077347;28;20426;-79
2022/03/15 00:03:09;;;;;;;47.60;30.83;;;;;;;5.85;88.36;102714.25;5077101;28;20097;-79
2022/03/15 00:05:34;;;;;;;71.17;39.83;;;;;;;5.91;89.57;102722.59;5077079;28;20427;-79
2022/03/15 00:08:00;;;;;;;50.87;33.07;;;;;;;5.79;89.09;102720.16;5076808;28;20051;-79
2022/03/15 00:10:26;;;;;;;77.57;41.50;;;;;;;5.83;89.34;102716.19;5077133;28;20040;-79
2022/03/15 00:12:54;;;;;;;42.90;29.07;;;;;;;5.64;89.02;102719.66;5076640;28;20539;-79
2022/03/15 00:15:20;;;;;;;41.50;27.73;;;;;;;5.62;88.75;102713.56;5075199;28;20028;-79
2022/03/15 00:17:45;;;;;;;38.87;26.30;;;;;;;5.51;88.54;102707.25;5076237;28;20070;-79
2022/03/15 00:20:18;;;;;;;42.20;27.73;;;;;;;5.55;88.84;102711.41;5077049;28;20055;-79
2022/03/15 00:22:44;;;;;;;46.23;30.03;;;;;;;5.53;89.43;102707.13;5075808;28;20028;-80
2022/03/15 00:25:11;;;;;;;42.23;27.90;;;;;;;5.48;88.93;102702.16;5076547;28;20604;-79
2022/03/15 00:27:37;;;;;;;38.07;25.87;;;;;;;5.41;88.95;102706.34;5075805;28;20047;-79
2022/03/15 00:30:06;;;;;;;36.90;24.77;;;;;;;5.34;88.85;102695.25;5076352;28;20040;-79
2022/03/15 00:32:33;;;;;;;37.73;24.70;;;;;;;5.31;88.98;102706.28;5076656;28;20043;-79
2022/03/15 00:34:58;;;;;;;36.43;23.83;;;;;;;5.31;89.08;102700.06;5076542;28;20153;-79
2022/03/15 00:37:24;;;;;;;39.00;26.33;;;;;;;5.32;89.18;102707.16;5076475;28;20110;-79
2022/03/15 00:39:50;;;;;;;41.87;27.40;;;;;;;5.33;89.32;102704.34;5076847;28;20089;-79
2022/03/15 00:42:16;;;;;;;45.23;29.30;;;;;;;5.32;89.68;102712.53;5075956;28;20803;-79
2022/03/15 00:44:42;;;;;;;46.73;29.30;;;;;;;5.34;89.48;102706.00;5076002;28;20711;-80
2022/03/15 00:54:37;;;;;;;46.37;28.63;;;;;;;5.35;89.59;102706.88;5039482;22;20648;-79
2022/03/15 00:57:03;;;;;;;52.60;32.22;;;;;;;5.28;89.73;102695.81;5032981;28;20447;-79
2022/03/15 00:59:29;;;;;;;71.13;46.17;;;;;;;5.36;90.59;102697.84;5016245;28;20080;-80
2022/03/15 01:01:56;;;;;;;47.20;31.60;;;;;;;5.41;91.28;102700.97;5016580;28;20033;-79
2022/03/15 01:04:21;;;;;;;69.27;43.77;;;;;;;5.44;90.76;102700.72;4990172;28;20075;-80
2022/03/15 01:06:47;;;;;;;58.33;37.73;;;;;;;5.48;90.36;102696.78;5017089;28;20175;-79
2022/03/15 01:09:12;;;;;;;46.33;29.70;;;;;;;5.44;90.12;102695.34;5016446;28;20073;-79
2022/03/15 01:11:38;;;;;;;41.83;27.73;;;;;;;5.48;90.69;102698.59;5016292;28;20772;-79
2022/03/15 01:14:04;;;;;;;42.90;28.50;;;;;;;5.47;90.30;102694.22;4990733;28;21431;-79
2022/03/15 01:16:29;;;;;;;40.57;28.10;;;;;;;5.46;90.24;102703.28;4998294;28;20041;-78
2022/03/15 01:18:55;;;;;;;41.17;27.73;;;;;;;5.46;90.37;102697.91;5015947;28;20049;-79
2022/03/15 01:21:21;;;;;;;43.37;26.93;;;;;;;5.45;90.25;102691.66;5016336;28;20037;-79
2022/03/15 01:23:46;;;;;;;42.70;27.80;;;;;;;5.48;90.39;102696.78;5016216;28;20442;-79
2022/03/15 01:26:13;;;;;;;40.67;27.30;;;;;;;5.46;90.13;102682.59;5016497;28;20503;-79
2022/03/15 01:28:39;;;;;;;43.87;29.43;;;;;;;5.54;90.05;102693.53;5004800;28;20397;-79
2022/03/15 01:31:04;;;;;;;38.27;27.00;;;;;;;5.53;90.25;102689.16;5016029;28;20080;-80
2022/03/15 01:33:30;;;;;;;41.73;27.77;;;;;;;5.58;90.01;102688.75;5015783;28;20128;-79
2022/03/15 01:35:55;;;;;;;40.60;27.07;;;;;;;5.58;89.66;102678.00;4998369;28;20128;-79
2022/03/15 01:38:20;;;;;;;44.80;30.17;;;;;;;5.65;89.55;102679.16;5005034;28;20558;-79
2022/03/15 01:40:46;;;;;;;40.27;26.20;;;;;;;5.71;89.33;102670.56;5016259;28;20033;-79
2022/03/15 01:43:12;;;;;;;40.23;27.93;;;;;;;5.65;89.09;102670.25;5015164;28;20037;-79
2022/03/15 01:45:39;;;;;;;43.60;31.47;;;;;;;5.77;88.57;102666.50;4997943;28;20762;-79
2022/03/15 01:48:07;;;;;;;39.07;27.00;;;;;;;5.73;88.46;102668.59;5015550;28;20390;-80
2022/03/15 01:50:32;;;;;;;37.67;25.90;;;;;;;5.70;88.52;102673.41;5016284;28;20052;-80
2022/03/15 01:52:58;;;;;;;35.67;25.00;;;;;;;5.71;88.65;102669.72;5016133;28;20476;-79
2022/03/15 01:55:24;;;;;;;33.60;23.43;;;;;;;5.61;88.42;102666.13;5015681;28;20049;-79
2022/03/15 01:57:50;;;;;;;35.07;24.63;;;;;;;5.65;88.17;102659.50;5015575;28;20550;-79
2022/03/15 02:00:17;;;;;;;37.37;23.23;;;;;;;5.72;88.27;102655.28;5015918;28;20060;-79
2022/03/15 02:02:43;;;;;;;38.53;24.17;;;;;;;5.71;88.43;102657.13;5015543;28;20136;-79
2022/03/15 02:05:08;;;;;;;36.97;25.23;;;;;;;5.66;88.36;102658.53;5015926;28;20041;-79
2022/03/15 02:07:34;;;;;;;33.20;23.77;;;;;;;5.71;88.00;102657.13;5030552;28;20037;-79
2022/03/15 02:09:59;;;;;;;37.03;24.10;;;;;;;5.70;88.02;102651.88;5014494;28;20370;-79
2022/03/15 02:12:24;;;;;;;35.87;23.83;;;;;;;5.71;87.90;102658.94;5015252;28;20049;-79
2022/03/15 02:14:50;;;;;;;35.63;22.60;;;;;;;5.72;87.76;102660.66;5015649;28;20072;-79
2022/03/15 02:17:15;;;;;;;34.00;22.63;;;;;;;5.81;87.20;102654.47;5015912;28;20473;-79
2022/03/15 02:19:43;;;;;;;32.70;21.27;;;;;;;5.82;86.98;102661.56;5015709;28;20124;-79
2022/03/15 02:22:08;;;;;;;31.23;20.50;;;;;;;5.81;87.01;102650.94;5014947;28;20045;-79
2022/03/15 02:24:34;;;;;;;36.47;20.90;;;;;;;5.83;86.85;102649.78;5015275;28;20036;-80
2022/03/15 02:27:00;;;;;;;34.27;20.47;;;;;;;5.92;86.44;102646.28;5007192;28;20080;-80
2022/03/15 02:29:41;;;;;;;35.17;24.53;;;;;;;5.89;86.40;102649.25;5014548;28;20087;-79
2022/03/15 02:32:07;;;;;;;35.90;25.13;;;;;;;5.84;86.45;102646.13;5014710;28;20037;-79
2022/03/15 02:34:33;;;;;;;36.80;23.77;;;;;;;5.83;86.50;102643.56;5014748;28;20393;-79
2022/03/15 02:36:58;;;;;;;31.00;22.17;;;;;;;5.79;86.62;102639.44;5014957;28;20045;-79
2022/03/15 02:39:23;;;;;;;33.90;23.50;;;;;;;5.76;86.37;102627.13;5014632;28;20069;-79
2022/03/15 02:41:49;;;;;;;32.93;23.00;;;;;;;5.77;86.19;102622.59;5013794;28;20037;-79
2022/03/15 02:44:14;;;;;;;32.93;21.63;;;;;;;5.77;86.29;102620.75;5014371;28;20045;-80
2022/03/15 02:46:40;;;;;;;33.03;22.10;;;;;;;5.77;86.35;102619.91;5014594;28;20417;-79
2022/03/15 02:49:11;;;;;;;34.47;21.27;;;;;;;5.73;86.64;102613.94;5014740;28;20041;-79
2022/03/15 02:51:37;;;;;;;31.73;22.37;;;;;;;5.69;86.61;102613.38;5007061;28;20056;-79
2022/03/15 02:54:08;;;;;;;35.50;22.07;;;;;;;5.73;86.18;102606.72;5012743;28;20033;-79
2022/03/15 02:56:35;;;;;;;30.50;19.50;;;;;;;5.81;85.96;102614.13;5013228;28;20041;-79
2022/03/15 02:59:01;;;;;;;29.70;19.77;;;;;;;5.75;85.69;102603.91;5014342;28;20041;-79
2022/03/15 03:01:26;;;;;;;33.40;20.87;;;;;;;5.81;85.75;102606.06;5029968;28;20048;-79
2022/03/15 03:03:53;;;;;;;30.53;19.47;;;;;;;5.79;85.46;102609.88;5014269;28;20029;-80
2022/03/15 03:06:18;;;;;;;31.87;19.03;;;;;;;5.78;85.70;102609.03;5014517;28;20116;-79
2022/03/15 03:08:44;;;;;;;28.93;19.57;;;;;;;5.79;85.31;102599.94;5014301;28;20041;-79
2022/03/15 03:11:10;;;;;;;30.03;19.40;;;;;;;5.75;85.19;102602.06;5014573;28;20175;-80
2022/03/15 03:13:37;;;;;;;29.87;18.97;;;;;;;5.76;85.59;102597.53;5013652;28;20047;-80
2022/03/15 03:16:05;;;;;;;28.67;18.50;;;;;;;5.76;85.32;102586.78;5014872;28;20409;-79
2022/03/15 03:18:34;;;;;;;31.10;19.97;;;;;;;5.77;84.76;102583.09;5013076;28;20073;-79
2022/03/15 03:21:05;;;;;;;28.00;20.10;;;;;;;5.72;85.73;102585.34;5030339;28;20453;-79
2022/03/15 03:23:32;;;;;;;26.90;19.17;;;;;;;5.71;85.47;102584.50;5010181;28;21472;-79
2022/03/15 03:25:59;;;;;;;30.37;20.97;;;;;;;5.76;85.09;102586.78;5033302;28;20746;-79
2022/03/15 03:28:25;;;;;;;28.73;19.40;;;;;;;5.67;85.39;102583.09;5017905;28;20805;-80
2022/03/15 03:30:51;;;;;;;29.97;20.40;;;;;;;5.70;85.29;102579.28;5018548;28;20068;-79
2022/03/15 03:33:19;;;;;;;30.07;19.60;;;;;;;5.67;85.54;102576.84;5017594;28;20146;-79
2022/03/15 03:35:45;;;;;;;31.27;21.10;;;;;;;5.57;85.83;102574.97;5018360;28;20082;-79
2022/03/15 03:38:11;;;;;;;32.83;21.93;;;;;;;5.64;85.61;102582.50;5017769;28;20523;-79
2022/03/15 03:40:37;;;;;;;33.03;21.03;;;;;;;5.61;85.62;102586.31;5018109;28;20041;-79
2022/03/15 03:43:02;;;;;;;31.07;20.27;;;;;;;5.62;85.73;102581.78;5016668;28;20219;-79
2022/03/15 03:45:28;;;;;;;29.67;20.30;;;;;;;5.57;85.77;102572.28;5016395;28;20847;-79
2022/03/15 03:47:53;;;;;;;30.10;19.23;;;;;;;5.59;85.85;102577.53;5018133;28;20710;-79
2022/03/15 03:50:19;;;;;;;27.73;18.37;;;;;;;5.57;85.77;102577.66;5017436;28;20049;-79
2022/03/15 03:52:45;;;;;;;31.47;18.80;;;;;;;5.53;86.09;102572.69;5018249;28;20073;-79
2022/03/15 03:55:11;;;;;;;27.23;18.47;;;;;;;5.51;85.62;102572.00;5017520;28;20416;-79
2022/03/15 03:57:37;;;;;;;27.83;19.30;;;;;;;5.44;85.57;102573.50;5017375;28;20053;-79
2022/03/15 04:00:05;;;;;;;26.67;19.00;;;;;;;5.40;86.54;102573.78;5017191;28;20507;-79
2022/03/15 04:02:30;;;;;;;31.47;19.60;;;;;;;5.42;86.19;102576.31;5006751;28;20654;-79
2022/03/15 04:04:56;;;;;;;30.23;19.87;;;;;;;5.42;85.98;102568.25;5017866;28;20044;-79
2022/03/15 04:07:21;;;;;;;29.20;18.87;;;;;;;5.41;86.63;102578.19;5017300;28;20396;-80
2022/03/15 04:09:47;;;;;;;30.27;19.73;;;;;;;5.32;86.76;102572.75;5017591;28;20033;-79
2022/03/15 04:12:14;;;;;;;29.07;19.97;;;;;;;5.31;87.02;102571.91;5017081;28;20380;-79
2022/03/15 04:14:39;;;;;;;28.93;20.03;;;;;;;5.34;86.94;102576.16;5017582;28;20666;-79
2022/03/15 04:17:07;;;;;;;32.17;20.60;;;;;;;5.36;86.84;102576.88;5017118;28;20068;-79
2022/03/15 04:19:32;;;;;;;30.43;20.13;;;;;;;5.37;86.77;102570.50;5017526;28;20091;-79
2022/03/15 04:21:58;;;;;;;29.37;19.20;;;;;;;5.43;86.72;102569.97;5017201;28;20231;-80
2022/03/15 04:24:25;;;;;;;28.67;20.50;;;;;;;5.44;86.36;102571.69;5016713;28;20041;-79
2022/03/15 04:26:51;;;;;;;30.50;20.30;;;;;;;5.41;86.75;102567.41;5017344;28;20068;-80
2022/03/15 04:29:17;;;;;;;30.27;19.73;;;;;;;5.38;86.81;102574.91;5015090;28;20037;-80
2022/03/15 04:31:42;;;;;;;30.60;20.60;;;;;;;5.34;87.20;102570.78;5032336;28;20083;-80
2022/03/15 04:34:08;;;;;;;32.53;19.77;;;;;;;5.37;87.10;102575.88;5014509;28;20159;-79
2022/03/15 04:36:35;;;;;;;30.13;20.10;;;;;;;5.32;87.31;102581.66;5016148;28;20481;-79
2022/03/15 04:39:01;;;;;;;30.57;20.63;;;;;;;5.34;86.96;102578.84;5016893;28;20088;-79
2022/03/15 04:41:26;;;;;;;28.53;19.03;;;;;;;5.32;87.17;102562.00;5007312;28;20063;-79
2022/03/15 04:43:52;;;;;;;29.90;19.67;;;;;;;5.33;86.89;102559.19;5016982;28;20043;-79
2022/03/15 04:46:17;;;;;;;30.77;19.33;;;;;;;5.34;87.11;102560.03;5017315;28;20565;-79
2022/03/15 04:48:43;;;;;;;27.03;18.57;;;;;;;5.35;87.08;102562.56;5017147;28;20038;-79
2022/03/15 04:51:09;;;;;;;29.27;20.43;;;;;;;5.28;87.45;102558.72;5016953;28;20041;-79
2022/03/15 04:53:35;;;;;;;31.63;19.83;;;;;;;5.22;87.58;102551.19;5016891;28;20366;-79
2022/03/15 04:56:01;;;;;;;30.03;20.30;;;;;;;5.21;87.38;102566.47;5006737;28;20055;-79
2022/03/15 04:58:27;;;;;;;29.80;19.83;;;;;;;5.22;87.31;102560.13;5016790;28;20041;-79
2022/03/15 05:00:52;;;;;;;29.57;20.57;;;;;;;5.18;87.68;102553.31;5016819;28;20033;-79
2022/03/15 05:03:18;;;;;;;28.53;19.57;;;;;;;5.18;87.21;102550.63;5014760;28;20037;-79
2022/03/15 05:05:46;;;;;;;29.90;20.13;;;;;;;5.17;87.19;102551.59;5008693;28;20092;-79
2022/03/15 05:08:11;;;;;;;31.73;20.63;;;;;;;5.20;87.38;102550.50;5016428;28;20029;-79
2022/03/15 05:13:21;;;;;;;35.00;24.17;;;;;;;5.22;86.74;102546.69;5015894;28;20052;-79
2022/03/15 05:15:47;;;;;;;32.00;23.47;;;;;;;5.22;86.51;102554.75;4990740;28;20041;-79
2022/03/15 05:18:13;;;;;;;30.90;21.57;;;;;;;5.22;86.36;102549.38;5016115;28;20477;-79
2022/03/15 05:20:38;;;;;;;29.57;19.57;;;;;;;5.28;86.06;102553.34;5016557;28;20044;-79
2022/03/15 05:23:04;;;;;;;38.20;23.13;;;;;;;5.30;86.00;102548.69;5016725;28;20096;-80
2022/03/15 05:25:29;;;;;;;27.80;18.93;;;;;;;5.27;85.79;102545.44;5014316;28;20038;-79
2022/03/15 05:27:55;;;;;;;26.73;18.47;;;;;;;5.28;85.85;102545.28;5016794;28;20033;-79
2022/03/15 05:30:20;;;;;;;25.93;18.53;;;;;;;5.28;85.48;102545.28;5015662;28;20516;-79
2022/03/15 05:32:46;;;;;;;28.10;18.27;;;;;;;5.28;85.63;102542.59;5016050;28;20083;-79
2022/03/15 05:35:11;;;;;;;27.20;18.13;;;;;;;5.24;85.42;102544.69;5015662;28;20124;-79
2022/03/15 05:37:36;;;;;;;28.13;18.23;;;;;;;5.27;85.30;102546.28;5015678;28;20065;-79
2022/03/15 05:40:03;;;;;;;25.37;16.97;;;;;;;5.26;85.27;102541.03;5014298;28;20761;-79
2022/03/15 05:42:28;;;;;;;27.27;17.77;;;;;;;5.23;85.75;102542.16;5015737;28;20548;-79
2022/03/15 05:44:54;;;;;;;25.47;17.60;;;;;;;5.22;85.80;102535.94;5015753;28;21384;-79
2022/03/15 05:47:19;;;;;;;26.60;17.60;;;;;;;5.20;85.68;102534.38;5015959;28;20033;-79
2022/03/15 05:49:45;;;;;;;29.30;17.73;;;;;;;5.19;85.08;102530.81;4981392;28;20552;-79
2022/03/15 05:52:10;;;;;;;29.03;17.60;;;;;;;5.22;85.12;102524.31;5007377;28;20065;-80
2022/03/15 05:54:36;;;;;;;30.17;16.80;;;;;;;5.21;85.77;102534.22;5007446;28;20550;-79
2022/03/15 05:57:02;;;;;;;26.77;17.07;;;;;;;5.17;85.57;102529.28;5015896;28;20488;-79
2022/03/15 05:59:28;;;;;;;29.80;17.43;;;;;;;5.16;85.71;102531.09;5014959;28;20091;-80
2022/03/15 06:01:54;;;;;;;27.50;17.67;;;;;;;5.13;86.08;102520.63;5015674;28;20080;-79
2022/03/15 06:04:24;;;;;;;25.47;16.50;;;;;;;5.11;85.95;102522.56;5015299;28;20033;-79
2022/03/15 06:06:49;;;;;;;29.70;17.20;;;;;;;5.09;85.91;102521.88;5015325;28;20128;-79
2022/03/15 06:09:15;;;;;;;27.33;17.53;;;;;;;5.05;85.96;102515.06;5015442;28;20547;-79
2022/03/15 06:11:40;;;;;;;28.63;20.17;;;;;;;5.15;85.76;102526.69;5015512;28;20033;-79
2022/03/15 06:14:06;;;;;;;27.90;18.13;;;;;;;5.08;85.86;102522.84;5015873;28;20049;-79
2022/03/15 06:16:31;;;;;;;26.20;17.03;;;;;;;5.09;85.99;102524.56;5013111;28;20041;-79
2022/03/15 06:18:57;;;;;;;26.03;17.20;;;;;;;5.06;86.08;102512.25;5015382;28;20033;-80
2022/03/15 06:21:23;;;;;;;25.17;16.40;;;;;;;5.09;85.98;102508.44;5014679;28;20481;-79
2022/03/15 06:23:49;;;;;;;29.43;17.67;;;;;;;5.05;86.06;102507.84;5014857;28;20033;-79
2022/03/15 06:26:15;;;;;;;26.50;16.77;;;;;;;5.07;86.05;102518.44;5015165;28;20071;-80
2022/03/15 06:28:40;;;;;;;24.90;16.37;;;;;;;5.08;85.69;102509.41;5015053;28;20045;-79
2022/03/15 06:31:07;;;;;;;24.53;16.60;;;;;;;5.07;85.46;102505.03;5015240;28;20045;-79
2022/03/15 06:33:32;;;;;;;27.60;16.50;;;;;;;5.08;85.77;102512.94;5013081;28;20044;-79
2022/03/15 06:35:58;;;;;;;23.63;15.90;;;;;;;5.12;85.58;102513.53;5015086;28;20128;-79
2022/03/15 06:38:24;;;;;;;26.70;16.57;;;;;;;5.15;85.41;102518.63;5015097;28;20124;-80
2022/03/15 06:40:52;;;;;;;26.33;15.87;;;;;;;5.16;85.05;102508.75;5015411;28;20041;-79
2022/03/15 06:43:19;;;;;;;23.67;16.00;;;;;;;5.17;85.42;102505.09;5015222;28;20504;-79
2022/03/15 06:45:46;;;;;;;28.33;16.70;;;;;;;5.17;86.17;102505.09;5014726;28;20033;-79
2022/03/15 06:48:12;;;;;;;24.97;16.20;;;;;;;5.16;85.73;102500.69;5015176;28;20041;-79
2022/03/15 06:50:40;;;;;;;27.30;16.20;;;;;;;5.18;85.63;102510.31;5014174;28;20033;-80
2022/03/15 06:53:05;;;;;;;23.73;15.60;;;;;;;5.20;85.48;102502.97;5013395;28;20048;-79
2022/03/15 06:55:31;;;;;;;24.80;16.20;;;;;;;5.22;85.33;102502.81;5012589;28;20045;-79
2022/03/15 06:57:56;;;;;;;24.87;15.33;;;;;;;5.23;85.55;102496.47;5005445;28;20051;-79
2022/03/15 07:00:22;;;;;;;21.80;14.87;;;;;;;5.28;85.04;102501.44;5014405;28;20045;-79
2022/03/15 07:02:47;;;;;;;24.83;15.83;;;;;;;5.31;84.75;102499.31;5014788;28;20876;-80
2022/03/15 07:05:12;;;;;;;26.93;15.20;;;;;;;5.34;84.94;102495.50;4996663;28;20655;-79
2022/03/15 07:07:38;;;;;;;26.43;15.33;;;;;;;5.33;84.93;102493.81;4988816;28;20075;-79
2022/03/15 07:10:09;;;;;;;25.20;15.27;;;;;;;5.36;84.92;102497.09;5014696;28;20037;-79
2022/03/15 07:12:35;;;;;;;24.70;14.80;;;;;;;5.41;84.78;102496.66;5014547;28;20068;-79
2022/03/15 07:15:02;;;;;;;21.60;13.53;;;;;;;5.41;84.27;102502.03;5014387;28;20053;-79
2022/03/15 07:17:29;;;;;;;23.53;13.90;;;;;;;5.46;83.88;102494.41;5006312;28;20041;-79
2022/03/15 07:19:56;;;;;;;25.13;14.30;;;;;;;5.48;84.50;102507.72;5014838;28;20031;-79
2022/03/15 07:22:23;;;;;;;26.27;13.90;;;;;;;5.52;83.95;102501.06;5014584;28;20390;-79
2022/03/15 07:24:49;;;;;;;23.27;13.70;;;;;;;5.52;83.57;102484.94;5014659;28;20075;-79
2022/03/15 07:27:14;;;;;;;24.13;13.90;;;;;;;5.61;83.71;102491.34;5013125;28;20045;-79
2022/03/15 07:29:40;;;;;;;24.17;13.40;;;;;;;5.65;83.53;102482.00;5013835;28;20423;-79
2022/03/15 07:32:05;;;;;;;21.63;13.23;;;;;;;5.67;83.35;102480.03;5028493;28;20038;-79
2022/03/15 07:34:31;;;;;;;25.70;12.90;;;;;;;5.72;82.80;102485.84;5014357;28;20072;-79
2022/03/15 07:36:56;;;;;;;23.37;12.07;;;;;;;5.75;82.83;102477.47;5014462;28;20034;-78
2022/03/15 07:39:22;;;;;;;20.60;12.47;;;;;;;5.77;82.88;102475.53;5014668;28;20649;-79
2022/03/15 07:41:47;;;;;;;22.60;11.60;;;;;;;5.82;82.86;102477.78;5013915;28;20874;-78
2022/03/15 07:44:13;;;;;;;20.63;11.60;;;;;;;5.83;82.50;102480.31;5029668;28;20045;-79
2022/03/15 07:46:40;;;;;;;21.07;10.80;;;;;;;5.87;82.75;102476.34;5014240;28;20048;-79
2022/03/15 07:49:06;;;;;;;23.13;11.37;;;;;;;5.90;82.45;102470.72;5014559;28;20030;-79
2022/03/15 07:51:32;;;;;;;18.37;10.73;;;;;;;5.96;82.18;102474.69;5014378;28;20050;-78
2022/03/15 07:53:58;;;;;;;19.27;10.50;;;;;;;6.01;82.28;102466.19;5014363;28;20502;-79
2022/03/15 07:56:23;;;;;;;24.47;10.73;;;;;;;6.04;81.88;102468.63;5013759;28;20041;-79
2022/03/15 07:58:49;;;;;;;25.53;11.70;;;;;;;6.05;82.76;102459.53;5012855;28;20434;-78
2022/03/15 08:01:14;;;;;;;20.83;11.97;;;;;;;6.11;83.88;102467.06;5013870;28;20029;-79
2022/03/15 08:03:39;;;;;;;20.03;11.80;;;;;;;6.15;83.22;102463.09;5013711;28;20033;-79
2022/03/15 08:06:05;;;;;;;21.80;11.70;;;;;;;6.19;82.36;102472.56;5012341;28;20039;-79
2022/03/15 08:08:30;;;;;;;23.83;10.87;;;;;;;6.21;81.49;102467.88;5014507;28;20055;-80
2022/03/15 08:10:56;;;;;;;19.47;11.30;;;;;;;6.31;81.18;102472.41;5017571;28;20159;-79
2022/03/15 08:13:22;;;;;;;21.50;11.43;;;;;;;6.34;80.94;102467.59;5017557;28;20056;-79
2022/03/15 08:15:47;;;;;;;19.53;11.67;;;;;;;6.40;80.36;102466.16;5017137;28;20045;-79
2022/03/15 08:18:13;;;;;;;21.10;10.57;;;;;;;6.44;80.46;102467.59;5017514;28;20037;-78
2022/03/15 08:20:39;;;;;;;20.23;10.90;;;;;;;6.48;80.80;102463.59;5017323;28;20045;-79
2022/03/15 08:23:05;;;;;;;18.63;10.80;;;;;;;6.51;80.88;102457.91;5017283;28;20040;-79
2022/03/15 08:25:30;;;;;;;22.87;11.37;;;;;;;6.57;79.88;102461.91;5022341;28;20479;-81
2022/03/15 08:27:57;;;;;;;21.33;9.87;;;;;;;6.57;79.68;102449.28;5017282;28;20033;-80
2022/03/15 08:30:22;;;;;;;17.77;9.33;;;;;;;6.62;79.05;102448.81;5016720;28;20047;-81
2022/03/15 08:32:48;;;;;;;18.33;9.00;;;;;;;6.70;80.11;102456.19;4997781;28;20499;-81
2022/03/15 08:35:13;;;;;;;21.67;9.33;;;;;;;6.71;79.59;102452.50;5022175;28;20071;-81
2022/03/15 08:37:40;;;;;;;14.77;8.40;;;;;;;6.78;79.42;102452.75;5015594;28;20416;-81
2022/03/15 08:40:06;;;;;;;18.60;8.70;;;;;;;6.79;79.31;102443.69;5016782;28;21376;-81
2022/03/15 08:42:32;;;;;;;18.53;8.90;;;;;;;6.85;79.88;102443.91;5016714;28;20044;-82
2022/03/15 08:44:57;;;;;;;19.17;8.80;;;;;;;6.90;79.34;102443.50;5016380;28;20057;-80
2022/03/15 08:47:23;;;;;;;20.10;9.17;;;;;;;6.95;79.71;102443.03;5016617;28;20033;-81
2022/03/15 08:49:48;;;;;;;17.83;8.60;;;;;;;7.00;80.40;102440.75;5016511;28;20038;-81
2022/03/15 08:52:14;;;;;;;18.90;8.83;;;;;;;7.05;80.12;102438.47;5017257;28;20392;-81
2022/03/15 08:54:40;;;;;;;17.83;8.93;;;;;;;7.10;79.79;102436.19;5015706;28;20045;-81
2022/03/15 08:57:07;;;;;;;17.00;7.97;;;;;;;7.15;78.92;102438.41;5015610;28;20489;-81
2022/03/15 08:59:32;;;;;;;18.03;8.33;;;;;;;7.21;78.72;102433.28;5016865;28;20041;-81
2022/03/15 09:01:59;;;;;;;15.80;8.57;;;;;;;7.24;77.90;102432.97;5016041;28;20037;-81
2022/03/15 09:04:25;;;;;;;18.40;8.33;;;;;;;7.33;77.93;102438.44;5009850;28;20037;-81
2022/03/15 09:06:50;;;;;;;18.30;8.57;;;;;;;7.38;77.95;102433.44;5016740;28;20041;-81
2022/03/15 09:09:20;;;;;;;17.27;7.57;;;;;;;7.43;77.88;102432.00;5014945;28;20597;-81
2022/03/15 09:11:46;;;;;;;15.97;8.10;;;;;;;7.49;78.69;102419.75;5008149;28;20045;-81
2022/03/15 09:14:12;;;;;;;18.00;8.60;;;;;;;7.58;80.22;102418.84;5016627;28;20464;-81
2022/03/15 09:16:37;;;;;;;17.77;8.33;;;;;;;7.70;80.10;102422.16;5016740;28;20156;-81
2022/03/15 09:19:02;;;;;;;18.50;9.20;;;;;;;7.74;80.43;102415.44;5016576;28;20425;-81
2022/03/15 09:21:28;;;;;;;17.07;9.20;;;;;;;7.82;79.51;102413.81;5016391;28;20040;-80
2022/03/15 09:23:57;;;;;;;18.07;9.07;;;;;;;7.92;79.96;102417.28;5016274;28;20508;-81
2022/03/15 09:26:24;;;;;;;15.57;9.30;;;;;;;7.93;78.59;102417.13;5015977;28;20082;-81
2022/03/15 09:28:50;;;;;;;17.47;8.50;;;;;;;8.00;77.67;102427.31;5022427;28;20125;-81
2022/03/15 09:31:16;;;;;;;15.63;8.53;;;;;;;8.04;77.51;102417.91;5022393;28;20377;-81
2022/03/15 09:33:43;;;;;;;15.83;8.17;;;;;;;8.11;77.15;102425.22;5017084;28;20041;-81
2022/03/15 09:36:09;;;;;;;14.40;8.23;;;;;;;8.18;76.61;102417.31;5016285;28;20122;-82
2022/03/15 09:38:35;;;;;;;17.43;8.90;;;;;;;8.27;77.82;102420.94;5016778;28;20041;-81
2022/03/15 09:41:03;;;;;;;17.17;8.10;;;;;;;8.31;76.25;102419.63;5016557;28;20064;-82
2022/03/15 09:43:45;;;;;;;16.67;8.10;;;;;;;8.41;76.21;102414.13;5016491;28;20064;-83
2022/03/15 09:46:12;;;;;;;15.67;8.40;;;;;;;8.44;76.49;102420.06;5016091;28;20033;-83
2022/03/15 09:48:39;;;;;;;18.87;8.00;;;;;;;8.47;75.87;102416.19;5015579;28;20397;-82
2022/03/15 09:51:06;;;;;;;18.83;8.50;;;;;;;8.55;75.89;102404.59;5016319;28;20033;-82
2022/03/15 09:53:37;;;;;;;17.50;8.13;;;;;;;8.54;73.99;102414.56;5015943;28;20039;-82
2022/03/15 09:56:03;;;;;;;19.27;7.77;;;;;;;8.69;72.92;102413.97;5016098;28;21539;-83
2022/03/15 09:58:28;;;;;;;14.60;7.33;;;;;;;8.75;73.02;102421.44;5015743;28;20052;-83
2022/03/15 10:00:55;;;;;;;16.73;8.10;;;;;;;8.80;73.96;102424.50;5016291;28;20485;-83
2022/03/15 10:03:22;;;;;;;17.57;7.53;;;;;;;8.85;72.63;102416.75;5015772;28;20064;-83
2022/03/15 10:05:49;;;;;;;18.67;7.70;;;;;;;8.90;70.58;102419.81;5015911;28;20038;-82
2022/03/15 10:08:15;;;;;;;17.80;7.43;;;;;;;9.01;70.34;102410.56;5016025;28;20033;-83
2022/03/15 10:10:42;;;;;;;19.03;8.50;;;;;;;8.99;70.56;102403.63;5015022;28;20049;-83
2022/03/15 10:13:08;;;;;;;20.83;9.50;;;;;;;8.97;70.38;102402.97;5015437;28;20555;-84
2022/03/15 10:15:34;;;;;;;18.83;8.37;;;;;;;9.01;70.24;102409.72;5015975;28;20060;-83
2022/03/15 10:18:05;;;;;;;17.13;7.90;;;;;;;8.98;69.84;102402.78;5015566;28;20425;-83
2022/03/15 10:20:42;;;;;;;15.20;7.13;;;;;;;9.03;70.00;102407.69;5015767;28;20128;-83
2022/03/15 10:23:10;;;;;;;15.97;7.50;;;;;;;9.03;70.75;102405.00;5015488;28;20067;-83
2022/03/15 10:25:37;;;;;;;16.93;7.47;;;;;;;9.09;71.42;102390.84;5021219;28;20634;-83
2022/03/15 10:28:05;;;;;;;15.83;7.73;;;;;;;9.10;71.28;102385.25;5015696;28;20041;-83
2022/03/15 10:30:31;;;;;;;16.00;7.03;;;;;;;9.12;70.23;102382.38;5004853;28;20428;-83
2022/03/15 10:32:57;;;;;;;15.63;7.10;;;;;;;9.11;69.95;102375.28;5014754;28;20041;-83
2022/03/15 10:35:35;;;;;;;16.17;7.20;;;;;;;9.11;70.32;102367.16;5015494;28;20493;-83
2022/03/15 10:38:00;;;;;;;13.27;7.30;;;;;;;9.21;70.85;102369.75;5015292;28;20045;-83
2022/03/15 10:40:43;;;;;;;17.93;7.90;;;;;;;9.26;72.81;102368.25;5016065;28;20637;-82
2022/03/15 10:43:11;;;;;;;16.73;7.87;;;;;;;9.31;72.51;102369.59;5015244;28;20095;-84
2022/03/15 10:45:40;;;;;;;14.43;7.07;;;;;;;9.27;69.98;102367.22;5015866;28;20568;-83
2022/03/15 10:48:20;;;;;;;16.53;7.77;;;;;;;9.26;71.12;102365.53;5015367;28;20065;-82
2022/03/15 10:51:14;;;;;;;12.40;7.43;;;;;;;9.39;71.01;102362.31;5030371;28;20039;-84
2022/03/15 10:53:47;;;;;;;15.65;7.90;;;;;;;9.34;70.48;102358.44;5012969;28;20514;-84
2022/03/15 10:56:19;;;;;;;15.03;7.33;;;;;;;9.39;70.66;102361.50;5014994;28;20393;-83
2022/03/15 10:58:45;;;;;;;14.10;7.50;;;;;;;9.44;70.95;102354.56;5021337;28;20464;-84
2022/03/15 11:01:11;;;;;;;13.17;7.07;;;;;;;9.44;68.86;102357.25;5006970;28;20135;-84
2022/03/15 11:03:36;;;;;;;16.37;7.43;;;;;;;9.45;69.40;102348.16;5014914;28;20065;-84
2022/03/15 11:06:08;;;;;;;18.67;8.33;;;;;;;9.45;69.30;102341.88;5015288;28;20025;-84
2022/03/15 11:08:34;;;;;;;16.97;7.73;;;;;;;9.53;69.18;102346.44;5015622;28;21323;-83
2022/03/15 11:11:06;;;;;;;14.07;7.73;;;;;;;9.61;70.37;102339.19;5015338;28;20033;-84
2022/03/15 11:13:32;;;;;;;14.40;8.20;;;;;;;9.64;69.97;102329.88;5015086;28;20071;-83
2022/03/15 11:16:04;;;;;;;13.83;7.33;;;;;;;9.69;70.20;102332.09;5015660;28;20068;-83
2022/03/15 11:18:34;;;;;;;16.73;7.80;;;;;;;9.74;69.90;102332.44;5015449;28;20037;-83
2022/03/15 11:21:02;;;;;;;14.50;7.20;;;;;;;9.80;69.22;102326.31;5015231;28;20041;-84
2022/03/15 11:23:31;;;;;;;17.17;8.20;;;;;;;9.74;67.89;102327.03;5014709;28;20051;-84
2022/03/15 11:26:06;;;;;;;16.67;8.33;;;;;;;9.79;70.32;102322.78;5015589;28;20405;-85